Time;durP1;ratioP1;P1;durP2;ratioP2;P2;SDS_P1;SDS_P2;PMS_P1;PMS_P2;Temp;Humidity;BMP_temperature;BMP_pressure;BME280_temperature;BME280_humidity;BME280_pressure;Samples;Min_cycle;Max_cycle;Signal;HPM_P1;HPM_P2
2023/10/18 00:00:32;;;;;;;2.25;2.05;;;4.80;99.90;;;;;;5097302;28;20120;-67
2023/10/18 00:03:01;;;;;;;1.98;1.80;;;4.90;99.90;;;;;;5115464;28;20040;-67
2023/10/18 00:05:27;;;;;;;2.05;1.83;;;5.10;99.90;;;;;;5115009;28;20105;-67
2023/10/18 00:07:54;;;;;;;2.58;2.10;;;5.00;99.90;;;;;;5115387;28;20075;-67
2023/10/18 00:10:20;;;;;;;2.30;2.05;;;4.90;99.90;;;;;;5096831;28;20110;-67
2023/10/18 00:12:47;;;;;;;2.83;2.63;;;4.80;99.90;;;;;;5114865;28;20043;-67
2023/10/18 00:15:14;;;;;;;2.40;2.20;;;4.90;99.90;;;;;;5114365;28;20067;-67
2023/10/18 00:17:40;;;;;;;2.67;2.22;;;4.90;99.90;;;;;;5115219;28;20115;-67
2023/10/18 00:20:13;;;;;;;2.17;1.98;;;4.80;99.90;;;;;;5115161;28;20591;-67
2023/10/18 00:22:40;;;;;;;2.40;2.20;;;4.80;99.90;;;;;;5114918;28;20589;-67
2023/10/18 00:25:06;;;;;;;2.65;2.45;;;5.90;99.90;;;;;;5115079;28;20047;-67
2023/10/18 00:27:32;;;;;;;2.47;2.28;;;4.80;99.90;;;;;;5115026;28;20054;-67
2023/10/18 00:29:58;;;;;;;2.97;2.53;;;5.00;99.90;;;;;;5114729;28;20042;-67
2023/10/18 00:32:26;;;;;;;2.97;2.55;;;4.90;99.90;;;;;;5114643;28;20139;-67
2023/10/18 00:34:54;;;;;;;2.60;2.40;;;4.90;99.90;;;;;;5114812;28;20050;-67
2023/10/18 00:37:21;;;;;;;2.60;2.40;;;4.80;99.90;;;;;;5114770;28;20066;-67
2023/10/18 00:39:47;;;;;;;2.50;2.30;;;5.50;99.90;;;;;;5114784;28;20372;-67
2023/10/18 00:42:28;;;;;;;3.08;2.78;;;4.70;99.90;;;;;;5096257;28;20042;-67
2023/10/18 00:45:12;;;;;;;2.40;2.20;;;4.60;99.90;;;;;;5079283;28;20051;-67
2023/10/18 00:47:38;;;;;;;2.67;2.47;;;4.90;99.90;;;;;;5114619;28;20036;-67
2023/10/18 00:50:06;;;;;;;3.10;2.70;;;4.80;99.90;;;;;;5114526;28;20043;-67
2023/10/18 00:52:32;;;;;;;2.70;2.50;;;4.70;99.90;;;;;;5113434;28;20043;-66
2023/10/18 00:54:58;;;;;;;3.08;2.78;;;4.80;99.90;;;;;;5114449;28;20035;-67
2023/10/18 00:57:28;;;;;;;3.30;3.00;;;4.80;99.90;;;;;;5096228;28;20044;-67
2023/10/18 00:59:56;;;;;;;3.00;2.70;;;5.20;99.90;;;;;;5114422;28;20043;-67
2023/10/18 01:02:28;;;;;;;3.60;2.53;;;4.80;99.90;;;;;;5114361;28;20040;-67
2023/10/18 01:04:54;;;;;;;3.22;2.92;;;4.80;99.90;;;;;;5095657;28;20094;-67
2023/10/18 01:07:20;;;;;;;2.85;2.55;;;4.90;99.90;;;;;;5113966;28;20093;-67
2023/10/18 01:09:49;;;;;;;3.42;3.13;;;4.80;99.90;;;;;;5095788;28;20078;-67
2023/10/18 01:12:15;;;;;;;3.40;2.80;;;4.70;99.90;;;;;;5113779;28;20032;-67
2023/10/18 01:14:43;;;;;;;3.53;3.22;;;4.70;99.90;;;;;;5114027;28;20047;-67
2023/10/18 01:17:09;;;;;;;4.28;3.47;;;5.10;99.90;;;;;;5114070;28;20036;-67
2023/10/18 01:19:35;;;;;;;3.53;3.22;;;4.80;99.90;;;;;;5114028;28;20058;-67
2023/10/18 01:22:03;;;;;;;3.80;3.40;;;4.60;99.90;;;;;;5113789;28;20376;-67
2023/10/18 01:24:36;;;;;;;3.40;3.10;;;4.50;99.90;;;;;;5113481;28;20036;-67
2023/10/18 01:27:02;;;;;;;3.35;3.05;;;4.80;99.90;;;;;;5113966;28;20096;-67
2023/10/18 01:29:29;;;;;;;3.42;3.10;;;5.00;99.90;;;;;;5113837;28;20039;-67
2023/10/18 01:31:55;;;;;;;3.15;2.85;;;4.80;99.90;;;;;;5095385;28;20104;-68
2023/10/18 01:34:20;;;;;;;3.50;3.20;;;4.80;99.90;;;;;;5095210;28;20047;-67
2023/10/18 01:36:46;;;;;;;3.25;2.95;;;4.90;99.90;;;;;;5113439;28;20376;-67
2023/10/18 01:39:21;;;;;;;3.20;2.90;;;4.70;99.90;;;;;;5113742;28;20040;-67
2023/10/18 01:41:58;;;;;;;3.60;3.22;;;4.70;99.90;;;;;;5112459;28;20201;-67
2023/10/18 01:44:33;;;;;;;3.53;3.22;;;4.60;99.90;;;;;;5113785;28;20047;-67
2023/10/18 01:47:09;;;;;;;3.50;3.20;;;4.70;99.90;;;;;;5095520;28;20031;-67
2023/10/18 01:49:46;;;;;;;3.58;3.28;;;4.70;99.90;;;;;;5113606;28;20097;-67
2023/10/18 01:52:12;;;;;;;3.35;3.05;;;4.80;99.90;;;;;;5113629;28;20087;-67
2023/10/18 01:54:38;;;;;;;2.72;2.53;;;4.70;99.90;;;;;;5095044;28;20039;-67
2023/10/18 01:57:06;;;;;;;3.10;2.80;;;4.70;99.90;;;;;;5113558;28;20544;-67
2023/10/18 01:59:34;;;;;;;3.50;3.20;;;4.70;99.90;;;;;;5113587;28;20040;-67
2023/10/18 02:02:05;;;;;;;3.10;2.80;;;4.70;99.90;;;;;;5113321;28;20503;-67
2023/10/18 02:04:36;;;;;;;5.78;3.42;;;4.70;99.90;;;;;;5113497;28;20052;-67
2023/10/18 02:07:05;;;;;;;3.05;2.75;;;4.70;99.90;;;;;;5095271;28;20537;-67
2023/10/18 02:09:48;;;;;;;4.20;3.22;;;4.60;99.90;;;;;;5113465;28;20044;-67
2023/10/18 02:12:21;;;;;;;3.00;2.63;;;4.60;99.90;;;;;;5113478;28;20387;-67
2023/10/18 02:14:48;;;;;;;2.95;2.70;;;4.60;99.90;;;;;;5113353;28;20070;-67
2023/10/18 02:17:14;;;;;;;3.03;2.72;;;4.60;99.90;;;;;;5113411;28;20067;-67
2023/10/18 02:19:39;;;;;;;2.70;2.50;;;4.50;99.90;;;;;;5113367;28;20078;-67
2023/10/18 02:22:07;;;;;;;3.35;3.05;;;4.80;99.90;;;;;;5113338;28;20035;-67
2023/10/18 02:24:36;;;;;;;3.17;2.92;;;4.60;99.90;;;;;;5113306;28;20040;-67
2023/10/18 02:27:02;;;;;;;3.03;2.72;;;4.60;99.90;;;;;;5095120;28;20088;-67
2023/10/18 02:29:28;;;;;;;2.80;2.60;;;4.70;99.90;;;;;;5113250;28;20039;-67
2023/10/18 02:31:57;;;;;;;2.90;2.70;;;4.50;99.90;;;;;;5113207;28;20046;-67
2023/10/18 02:34:26;;;;;;;2.80;2.60;;;4.50;99.90;;;;;;5113185;28;20494;-67
2023/10/18 02:36:52;;;;;;;4.10;2.65;;;4.40;99.90;;;;;;5113623;28;20043;-67
2023/10/18 02:39:31;;;;;;;2.85;2.65;;;5.10;99.90;;;;;;5116865;28;20376;-67
2023/10/18 02:41:58;;;;;;;2.92;2.65;;;4.60;99.90;;;;;;5117048;28;20031;-67
2023/10/18 02:44:24;;;;;;;3.00;2.70;;;4.60;99.90;;;;;;5098860;28;20074;-67
2023/10/18 02:46:52;;;;;;;4.03;3.20;;;4.50;99.90;;;;;;5117015;28;20031;-67
2023/10/18 02:49:18;;;;;;;3.05;2.75;;;4.60;99.90;;;;;;5098816;28;20122;-67
2023/10/18 02:51:47;;;;;;;2.72;2.47;;;4.50;99.90;;;;;;5116911;28;20490;-67
2023/10/18 02:56:43;;;;;;;2.95;2.65;;;4.30;99.90;;;;;;5098487;28;20047;-65
2023/10/18 02:59:09;;;;;;;3.45;3.08;;;4.60;99.90;;;;;;5116701;28;20027;-65
2023/10/18 03:01:40;;;;;;;2.70;2.50;;;4.40;99.90;;;;;;5116466;28;20036;-65
2023/10/18 03:04:09;;;;;;;2.90;2.65;;;4.50;99.90;;;;;;5116432;28;20040;-65
2023/10/18 03:06:36;;;;;;;4.05;3.20;;;4.60;99.90;;;;;;5098376;28;20055;-65
2023/10/18 03:09:03;;;;;;;3.53;3.22;;;4.50;99.90;;;;;;5116592;28;20157;-65
2023/10/18 03:11:31;;;;;;;3.47;3.13;;;4.30;99.90;;;;;;5116290;28;20048;-64
2023/10/18 03:13:57;;;;;;;2.90;2.60;;;4.70;99.90;;;;;;5098112;28;20123;-67
2023/10/18 03:19:09;;;;;;;2.85;2.65;;;4.50;99.90;;;;;;5116384;28;20035;-67
2023/10/18 03:21:35;;;;;;;3.15;2.83;;;4.50;99.90;;;;;;5116334;28;20089;-67
2023/10/18 03:24:01;;;;;;;3.10;2.83;;;4.60;99.90;;;;;;5116289;28;20043;-67
2023/10/18 03:26:37;;;;;;;4.65;2.90;;;4.50;99.90;;;;;;5080810;28;20036;-67
2023/10/18 03:29:05;;;;;;;2.92;2.72;;;4.60;99.90;;;;;;5114687;28;20407;-67
2023/10/18 03:31:35;;;;;;;3.45;2.58;;;4.70;99.90;;;;;;5114834;28;20046;-67
2023/10/18 03:34:02;;;;;;;3.50;3.20;;;4.30;99.90;;;;;;5116071;28;20044;-67
2023/10/18 03:36:32;;;;;;;3.20;2.90;;;5.00;99.90;;;;;;5115973;28;20047;-67
2023/10/18 03:39:00;;;;;;;3.72;3.17;;;4.70;99.90;;;;;;5115666;28;20036;-67
2023/10/18 03:41:33;;;;;;;3.20;2.90;;;4.60;99.90;;;;;;5115943;28;20040;-67
2023/10/18 03:44:08;;;;;;;3.17;2.85;;;4.50;99.90;;;;;;5115887;28;20085;-67
2023/10/18 03:49:31;;;;;;;3.10;2.80;;;4.40;99.90;;;;;;5097161;28;20102;-67
2023/10/18 03:52:16;;;;;;;4.07;3.40;;;4.60;99.90;;;;;;5097229;28;20380;-67
2023/10/18 03:54:44;;;;;;;3.03;2.72;;;4.50;99.90;;;;;;5115420;28;20453;-67
2023/10/18 03:57:16;;;;;;;3.13;2.83;;;4.60;99.90;;;;;;5115327;28;20114;-67
2023/10/18 03:59:44;;;;;;;3.03;2.80;;;4.70;99.90;;;;;;5097397;28;20050;-67
2023/10/18 04:02:26;;;;;;;3.00;2.70;;;4.90;99.90;;;;;;5115272;28;20043;-67
2023/10/18 04:04:58;;;;;;;;;;;4.60;99.90;;;;;;5114618;28;20063;-67
2023/10/18 04:07:26;;;;;;;3.28;2.97;;;4.40;99.90;;;;;;5131019;27;20330;-67
2023/10/18 04:09:53;;;;;;;3.28;2.97;;;4.40;99.90;;;;;;5115446;28;20028;-67
2023/10/18 04:12:22;;;;;;;2.72;2.53;;;4.50;99.90;;;;;;5115375;28;20536;-67
2023/10/18 04:15:00;;;;;;;3.22;3.00;;;4.60;99.90;;;;;;5115082;28;20039;-65
2023/10/18 04:17:37;;;;;;;3.53;3.22;;;4.50;99.90;;;;;;5115238;28;20478;-65
2023/10/18 04:20:22;;;;;;;3.80;3.28;;;4.60;99.90;;;;;;5115257;28;20111;-65
2023/10/18 04:22:51;;;;;;;3.58;3.28;;;4.50;99.90;;;;;;5115163;28;20058;-65
2023/10/18 04:25:25;;;;;;;3.30;3.00;;;4.50;99.90;;;;;;5115167;28;20372;-65
2023/10/18 04:27:57;;;;;;;3.17;2.88;;;4.50;99.90;;;;;;5115027;28;20040;-65
2023/10/18 04:30:24;;;;;;;3.35;3.05;;;4.20;99.90;;;;;;5096703;28;20044;-65
2023/10/18 04:32:54;;;;;;;3.50;2.83;;;4.40;99.90;;;;;;5114643;28;20055;-65
2023/10/18 04:35:25;;;;;;;3.13;2.83;;;5.40;99.90;;;;;;5113283;28;20046;-65
2023/10/18 04:37:54;;;;;;;3.10;2.80;;;4.40;99.90;;;;;;5114883;28;20078;-65
2023/10/18 04:40:24;;;;;;;3.47;3.17;;;5.40;99.90;;;;;;5114799;28;20031;-66
2023/10/18 04:42:50;;;;;;;3.05;2.85;;;4.30;99.90;;;;;;5096516;28;20042;-65
2023/10/18 04:45:16;;;;;;;2.95;2.65;;;4.50;99.90;;;;;;5114345;28;20133;-65
2023/10/18 04:47:42;;;;;;;3.58;3.28;;;4.30;99.90;;;;;;5114670;28;20161;-65
2023/10/18 04:50:11;;;;;;;3.40;3.10;;;4.50;99.90;;;;;;5114569;28;20475;-65
2023/10/18 04:52:40;;;;;;;3.15;2.92;;;4.40;99.90;;;;;;5114858;28;20110;-65
2023/10/18 04:55:12;;;;;;;3.40;3.10;;;4.30;99.90;;;;;;5114113;28;20055;-65
2023/10/18 04:57:39;;;;;;;3.10;2.80;;;4.70;99.90;;;;;;5114424;28;20399;-65
2023/10/18 05:02:53;;;;;;;3.20;2.90;;;4.40;99.90;;;;;;5114336;28;20481;-65
2023/10/18 05:05:20;;;;;;;3.22;2.92;;;4.50;99.90;;;;;;5114019;28;20055;-67
2023/10/18 05:07:48;;;;;;;3.30;3.03;;;5.50;99.90;;;;;;5096072;28;20055;-68
2023/10/18 05:10:14;;;;;;;3.72;2.88;;;4.20;99.90;;;;;;5095690;28;20051;-67
2023/10/18 05:12:48;;;;;;;3.45;3.15;;;4.30;99.90;;;;;;5113857;28;20092;-68
2023/10/18 05:15:21;;;;;;;4.13;3.53;;;4.40;99.90;;;;;;5095656;28;20055;-65
2023/10/18 05:17:49;;;;;;;3.70;3.40;;;4.40;99.90;;;;;;5114078;28;20426;-65
2023/10/18 05:22:50;;;;;;;2.83;2.63;;;4.30;99.90;;;;;;5095587;28;20407;-65
2023/10/18 05:27:59;;;;;;;3.75;3.45;;;4.30;99.90;;;;;;5113887;28;20108;-65
2023/10/18 05:30:26;;;;;;;3.27;2.97;;;5.00;99.90;;;;;;5113592;28;20039;-65
2023/10/18 05:35:28;;;;;;;3.97;3.58;;;4.10;99.90;;;;;;5113819;28;20130;-67
2023/10/18 05:37:58;;;;;;;3.92;3.58;;;4.20;99.90;;;;;;5078464;28;20043;-67
2023/10/18 05:43:22;;;;;;;3.53;3.22;;;4.50;99.90;;;;;;5113792;28;20042;-66
2023/10/18 05:45:49;;;;;;;3.35;3.05;;;4.30;99.90;;;;;;5114072;28;20437;-66
2023/10/18 05:48:22;;;;;;;3.92;3.63;;;4.30;99.90;;;;;;5113654;28;20479;-66
2023/10/18 05:51:21;;;;;;;3.03;2.83;;;4.20;99.90;;;;;;5113351;28;20403;-66
2023/10/18 05:53:47;;;;;;;3.33;3.03;;;4.20;99.90;;;;;;5095330;28;20122;-69
2023/10/18 05:56:14;;;;;;;3.45;3.15;;;4.80;99.90;;;;;;5095228;28;20428;-64
2023/10/18 05:58:39;;;;;;;4.05;3.58;;;4.20;99.90;;;;;;5095123;28;20039;-64
2023/10/18 06:01:05;;;;;;;3.80;3.50;;;4.30;99.90;;;;;;5113552;28;20040;-68
2023/10/18 06:03:39;;;;;;;4.13;3.80;;;4.30;99.90;;;;;;5078462;28;20825;-67
2023/10/18 06:06:08;;;;;;;3.72;3.42;;;4.20;99.90;;;;;;5079324;28;20056;-67
2023/10/18 06:08:34;;;;;;;3.70;3.30;;;4.30;99.90;;;;;;5094897;28;20043;-66
2023/10/18 06:11:03;;;;;;;3.80;3.47;;;4.20;99.90;;;;;;5113229;28;20081;-67
2023/10/18 06:13:28;;;;;;;3.67;3.38;;;4.10;99.90;;;;;;5116954;28;20077;-68
2023/10/18 06:15:58;;;;;;;4.15;3.78;;;4.30;99.90;;;;;;5117698;28;20047;-66
2023/10/18 06:18:30;;;;;;;4.03;3.30;;;4.20;99.90;;;;;;5117584;28;20047;-67
2023/10/18 06:20:59;;;;;;;3.53;3.22;;;4.20;99.90;;;;;;5117208;28;20062;-68
2023/10/18 06:23:37;;;;;;;3.40;3.10;;;4.40;99.90;;;;;;5117392;28;20039;-66
2023/10/18 06:26:28;;;;;;;3.88;3.58;;;4.10;99.90;;;;;;5101223;28;20390;-67
2023/10/18 06:28:56;;;;;;;3.72;3.42;;;4.40;99.90;;;;;;5099165;28;20572;-66
2023/10/18 06:31:29;;;;;;;3.70;3.40;;;4.40;99.90;;;;;;5117229;28;20140;-67
2023/10/18 06:33:57;;;;;;;3.85;3.50;;;4.00;99.90;;;;;;5098756;28;20131;-67
2023/10/18 06:36:24;;;;;;;3.35;3.05;;;4.30;99.90;;;;;;5117186;28;20036;-67
2023/10/18 06:38:51;;;;;;;3.60;3.30;;;4.50;99.90;;;;;;5117212;28;20032;-67
2023/10/18 06:41:21;;;;;;;4.25;3.85;;;4.20;99.90;;;;;;5098859;28;20479;-66
2023/10/18 06:43:49;;;;;;;4.32;3.92;;;4.30;99.90;;;;;;5117118;28;20106;-67
2023/10/18 06:46:26;;;;;;;3.75;3.45;;;4.30;99.90;;;;;;5116707;28;20123;-66
2023/10/18 06:48:52;;;;;;;3.90;3.60;;;4.40;99.90;;;;;;5117032;28;20044;-66
2023/10/18 06:51:17;;;;;;;3.80;3.50;;;4.60;99.90;;;;;;5116660;28;20035;-66
2023/10/18 06:53:53;;;;;;;4.30;3.90;;;4.60;99.90;;;;;;5116816;28;20049;-66
2023/10/18 06:56:22;;;;;;;3.97;3.60;;;4.60;99.90;;;;;;5116803;28;20518;-66
2023/10/18 06:58:48;;;;;;;3.95;3.65;;;4.90;99.90;;;;;;5116478;28;20082;-66
2023/10/18 07:01:19;;;;;;;3.75;3.45;;;4.70;99.90;;;;;;5116364;28;20044;-66
2023/10/18 07:03:45;;;;;;;4.10;3.70;;;4.60;99.90;;;;;;5115457;28;20047;-66
2023/10/18 07:06:24;;;;;;;4.03;3.65;;;4.70;99.90;;;;;;5115121;28;20063;-66
2023/10/18 07:08:52;;;;;;;4.18;3.83;;;4.90;99.90;;;;;;5115396;28;20039;-66
2023/10/18 07:11:19;;;;;;;4.35;3.95;;;4.70;99.90;;;;;;5115302;28;20069;-66
2023/10/18 07:13:49;;;;;;;3.75;3.45;;;4.90;99.90;;;;;;5114928;28;20112;-66
2023/10/18 07:16:25;;;;;;;4.22;3.92;;;5.00;99.90;;;;;;5115209;28;20115;-66
2023/10/18 07:19:04;;;;;;;4.03;3.63;;;5.30;99.90;;;;;;5115243;28;20036;-66
2023/10/18 07:21:32;;;;;;;4.82;3.63;;;5.20;99.90;;;;;;5114861;28;20035;-66
2023/10/18 07:24:02;;;;;;;4.03;3.63;;;4.90;99.90;;;;;;5096467;28;20545;-66
2023/10/18 07:26:29;;;;;;;3.78;3.47;;;4.90;99.90;;;;;;5096878;28;20495;-65
2023/10/18 07:28:55;;;;;;;3.78;3.47;;;5.10;99.90;;;;;;5115048;28;20040;-65
2023/10/18 07:31:24;;;;;;;4.47;4.10;;;5.90;99.90;;;;;;5114926;28;20039;-65
2023/10/18 07:33:50;;;;;;;4.18;3.85;;;5.50;99.90;;;;;;5114949;28;20439;-65
2023/10/18 07:36:19;;;;;;;4.05;3.75;;;5.70;99.90;;;;;;5115026;28;20065;-66
2023/10/18 07:38:49;;;;;;;4.35;3.95;;;5.40;99.90;;;;;;5114870;28;20028;-66
2023/10/18 07:41:15;;;;;;;4.07;3.78;;;5.50;99.90;;;;;;5113536;28;20491;-66
2023/10/18 07:43:44;;;;;;;4.07;3.78;;;5.30;99.90;;;;;;5096519;28;20039;-66
2023/10/18 07:46:16;;;;;;;3.22;2.92;;;5.50;99.90;;;;;;5114779;28;20458;-69
2023/10/18 07:48:47;;;;;;;3.72;3.42;;;5.50;99.90;;;;;;5097573;28;20075;-66
2023/10/18 07:51:31;;;;;;;4.00;3.67;;;5.70;99.90;;;;;;5114687;28;20034;-67
2023/10/18 07:53:57;;;;;;;4.28;3.88;;;5.70;99.90;;;;;;5114386;28;20445;-66
2023/10/18 07:56:29;;;;;;;4.45;3.88;;;5.80;99.90;;;;;;5114635;28;20031;-68
2023/10/18 08:01:52;;;;;;;3.55;3.25;;;5.80;99.90;;;;;;5114539;28;20115;-66
2023/10/18 08:04:20;;;;;;;3.97;3.58;;;6.00;99.90;;;;;;5077185;28;1048202;-66
2023/10/18 08:06:49;;;;;;;3.85;3.55;;;6.10;99.90;;;;;;5115156;28;20044;-67
2023/10/18 08:09:20;;;;;;;3.40;3.10;;;6.20;99.90;;;;;;5097253;28;20046;-68
2023/10/18 08:11:47;;;;;;;4.40;4.00;;;6.20;99.90;;;;;;5115427;28;20112;-66
2023/10/18 08:14:16;;;;;;;3.08;2.80;;;6.30;99.90;;;;;;5115235;28;20044;-66
2023/10/18 08:16:44;;;;;;;4.18;3.78;;;6.40;99.90;;;;;;5115270;28;20038;-67
2023/10/18 08:19:11;;;;;;;3.28;2.97;;;6.40;99.90;;;;;;5096703;28;20122;-67
2023/10/18 08:21:38;;;;;;;3.60;3.30;;;6.50;99.90;;;;;;5115220;28;20031;-67
2023/10/18 08:24:08;;;;;;;3.60;3.30;;;6.60;99.90;;;;;;5115149;28;20047;-67
2023/10/18 08:26:48;;;;;;;3.55;3.25;;;6.70;99.90;;;;;;5114803;28;20043;-67
2023/10/18 08:29:17;;;;;;;3.97;3.57;;;6.70;99.90;;;;;;5115014;28;20067;-67
2023/10/18 08:31:55;;;;;;;4.15;3.85;;;6.70;99.90;;;;;;5096768;28;20077;-67
2023/10/18 08:34:23;;;;;;;3.50;3.20;;;6.80;99.90;;;;;;5114113;28;20040;-67
2023/10/18 08:37:01;;;;;;;3.22;3.00;;;6.90;99.90;;;;;;5114911;28;20046;-67
2023/10/18 08:39:27;;;;;;;3.65;3.35;;;7.00;99.90;;;;;;5114557;28;20045;-67
2023/10/18 08:42:08;;;;;;;3.50;3.20;;;7.00;99.90;;;;;;5114841;28;20031;-67
2023/10/18 08:44:35;;;;;;;3.42;3.03;;;7.10;99.90;;;;;;5096520;28;20100;-67
2023/10/18 08:49:34;;;;;;;3.67;3.35;;;7.20;99.90;;;;;;5114662;28;20047;-66
2023/10/18 08:52:06;;;;;;;3.28;3.08;;;7.30;99.90;;;;;;5114548;28;20039;-66
2023/10/18 08:54:32;;;;;;;;;;;7.40;99.90;;;;;;5114577;28;20051;-67
2023/10/18 08:56:59;;;;;;;3.03;2.80;;;7.40;99.90;;;;;;5114594;28;20267;-66
2023/10/18 08:59:27;;;;;;;3.30;3.00;;;7.50;99.90;;;;;;5114451;28;20050;-67
2023/10/18 09:04:36;;;;;;;3.28;2.97;;;7.70;99.90;;;;;;5095842;28;20048;-66
2023/10/18 09:09:57;;;;;;;3.78;3.47;;;7.80;99.90;;;;;;5114250;28;20052;-67
2023/10/18 09:17:56;;;;;;;3.35;3.05;;;7.90;99.90;;;;;;5114125;28;20039;-67
2023/10/18 09:20:26;;;;;;;3.22;2.92;;;8.00;99.90;;;;;;5096369;28;20437;-67
2023/10/18 09:22:54;;;;;;;3.28;2.97;;;8.00;99.90;;;;;;5113585;28;20056;-66
2023/10/18 09:25:24;;;;;;;3.03;2.72;;;8.10;99.90;;;;;;5113908;28;20116;-66
2023/10/18 09:28:06;;;;;;;4.20;3.40;;;8.20;99.90;;;;;;5113546;28;20118;-68
2023/10/18 09:30:35;;;;;;;3.20;2.90;;;8.30;99.90;;;;;;5095446;28;20110;-66
2023/10/18 09:33:01;;;;;;;3.53;3.22;;;8.40;99.90;;;;;;5113611;28;20062;-71
2023/10/18 09:35:27;;;;;;;2.90;2.70;;;8.30;99.90;;;;;;5113691;28;20035;-67
2023/10/18 09:37:53;;;;;;;2.90;2.70;;;8.60;99.90;;;;;;5095524;28;20051;-68
2023/10/18 09:40:19;;;;;;;3.08;2.78;;;8.60;99.90;;;;;;5113815;28;20035;-66
2023/10/18 09:42:45;;;;;;;2.75;2.55;;;8.70;99.90;;;;;;5113475;28;20323;-66
2023/10/18 09:45:13;;;;;;;2.67;2.47;;;8.80;99.90;;;;;;5095194;28;20410;-66
2023/10/18 09:47:40;;;;;;;2.40;2.20;;;9.50;99.90;;;;;;5095358;28;20039;-66
2023/10/18 09:50:09;;;;;;;2.40;2.20;;;9.20;99.90;;;;;;5113457;28;20046;-66
2023/10/18 09:52:47;;;;;;;2.72;2.53;;;9.10;99.90;;;;;;5113199;28;20050;-67
2023/10/18 09:55:17;;;;;;;3.30;3.10;;;9.00;99.90;;;;;;5095331;28;20430;-67
2023/10/18 09:57:49;;;;;;;2.50;2.30;;;9.10;99.90;;;;;;5078429;28;20044;-66
2023/10/18 10:00:16;;;;;;;3.22;2.92;;;9.10;99.90;;;;;;5095225;28;20070;-66
2023/10/18 10:02:52;;;;;;;2.60;2.40;;;9.00;99.90;;;;;;5113481;28;20039;-66
2023/10/18 10:05:26;;;;;;;2.50;2.30;;;9.50;99.90;;;;;;5113157;28;20056;-66
2023/10/18 10:07:56;;;;;;;2.58;2.38;;;9.10;99.90;;;;;;5095006;28;20450;-66
2023/10/18 10:10:43;;;;;;;2.35;2.15;;;9.20;99.90;;;;;;5095038;28;20118;-66
2023/10/18 10:13:25;;;;;;;2.75;2.55;;;9.10;99.90;;;;;;5113425;28;20036;-66
2023/10/18 10:15:59;;;;;;;2.83;2.63;;;9.30;99.90;;;;;;5113049;28;20048;-66
2023/10/18 10:18:30;;;;;;;2.60;2.40;;;9.20;99.90;;;;;;5113068;28;20047;-68
2023/10/18 10:20:58;;;;;;;2.90;2.65;;;9.20;99.90;;;;;;5113096;28;20043;-66
2023/10/18 10:23:24;;;;;;;2.55;2.35;;;9.40;99.90;;;;;;5113093;28;20039;-65
2023/10/18 10:26:12;;;;;;;2.63;2.42;;;9.40;99.90;;;;;;5094856;28;20066;-66
2023/10/18 10:29:09;;;;;;;2.70;2.50;;;9.40;99.90;;;;;;5113285;28;20487;-66
2023/10/18 10:31:56;;;;;;;2.60;2.40;;;9.70;99.90;;;;;;5112824;28;20040;-66
2023/10/18 10:34:32;;;;;;;2.65;2.45;;;9.50;99.90;;;;;;5113198;28;20039;-66
2023/10/18 10:37:08;;;;;;;2.60;2.40;;;;;;;;;;5113192;28;20038;-65
2023/10/18 10:39:49;;;;;;;2.72;2.53;;;9.80;99.90;;;;;;5094963;28;20035;-65
2023/10/18 10:42:52;;;;;;;;;;;9.60;99.90;;;;;;5113312;28;20044;-66
2023/10/18 10:45:43;;;;;;;2.60;2.40;;;9.70;99.90;;;;;;5094893;28;19926;-65
2023/10/18 10:48:30;;;;;;;2.67;2.47;;;9.70;99.90;;;;;;5113156;28;20047;-66
2023/10/18 10:51:11;;;;;;;1.88;1.77;;;9.70;99.90;;;;;;5113107;28;20039;-65
2023/10/18 10:53:50;;;;;;;;;;;9.80;99.90;;;;;;5095192;28;20115;-65
2023/10/18 10:56:29;;;;;;;2.47;2.28;;;9.90;99.90;;;;;;5094504;28;19920;-65
2023/10/18 10:58:55;;;;;;;2.15;1.95;;;10.00;99.90;;;;;;5115332;28;20036;-65
2023/10/18 11:01:39;;;;;;;2.70;2.50;;;10.10;99.90;;;;;;5116724;28;20043;-65
2023/10/18 11:04:27;;;;;;;2.55;2.35;;;10.20;99.90;;;;;;5116525;28;20039;-66
2023/10/18 11:06:57;;;;;;;2.17;1.98;;;10.30;95.00;;;;;;5098290;28;20105;-66
2023/10/18 11:09:34;;;;;;;2.15;1.95;;;10.30;99.20;;;;;;5116627;28;20119;-67
2023/10/18 11:12:18;;;;;;;2.35;2.15;;;10.40;98.50;;;;;;5116593;28;20085;-66
2023/10/18 11:14:50;;;;;;;3.13;2.15;;;10.60;98.00;;;;;;5116167;28;20054;-66
2023/10/18 11:19:43;;;;;;;2.25;2.05;;;10.70;98.80;;;;;;5116370;28;20032;-65
2023/10/18 11:22:11;;;;;;;2.42;2.22;;;10.70;94.50;;;;;;5116296;28;20039;-65
2023/10/18 11:24:39;;;;;;;2.22;2.03;;;10.80;95.80;;;;;;5114830;28;20039;-66
2023/10/18 11:27:08;;;;;;;2.00;1.90;;;10.80;95.40;;;;;;5116055;28;20051;-65
2023/10/18 11:29:38;;;;;;;2.40;2.20;;;10.90;97.00;;;;;;5097710;28;20052;-65
2023/10/18 11:32:06;;;;;;;1.90;1.80;;;11.40;89.40;;;;;;5116188;28;20093;-66
2023/10/18 11:34:33;;;;;;;2.33;2.13;;;11.00;93.80;;;;;;5115804;28;20425;-65
2023/10/18 11:37:02;;;;;;;1.92;1.80;;;11.10;90.00;;;;;;5097495;28;20104;-65
2023/10/18 11:39:34;;;;;;;1.85;1.67;;;11.40;90.60;;;;;;5114729;28;20050;-66
2023/10/18 11:42:00;;;;;;;2.40;2.20;;;11.00;90.20;;;;;;5080609;28;20416;-64
2023/10/18 11:44:31;;;;;;;1.80;1.70;;;11.50;90.20;;;;;;5114385;28;20123;-65
2023/10/18 11:47:20;;;;;;;1.80;1.70;;;11.10;77.60;;;;;;5115949;28;20096;-65
2023/10/18 11:49:53;;;;;;;2.08;1.88;;;11.30;60.10;;;;;;5115557;28;20081;-65
2023/10/18 11:52:25;;;;;;;2.50;2.05;;;11.20;80.90;;;;;;5097212;28;20043;-65
2023/10/18 11:54:52;;;;;;;1.90;1.80;;;11.10;64.90;;;;;;5115690;28;20443;-65
2023/10/18 11:57:26;;;;;;;1.92;1.83;;;11.20;1.00;;;;;;5115717;28;20391;-65
2023/10/18 11:59:54;;;;;;;2.15;1.73;;;11.50;99.90;;;;;;5115711;28;20118;-65
2023/10/18 12:02:21;;;;;;;2.63;2.17;;;11.50;99.90;;;;;;5115334;28;20051;-64
2023/10/18 12:04:48;;;;;;;2.38;1.90;;;11.30;99.90;;;;;;5115348;28;20529;-65
2023/10/18 12:07:14;;;;;;;2.10;1.90;;;11.80;94.00;;;;;;5115267;28;20554;-65
2023/10/18 12:09:51;;;;;;;1.80;1.70;;;12.30;99.90;;;;;;5114122;28;20484;-65
2023/10/18 12:12:20;;;;;;;2.00;1.90;;;11.90;99.90;;;;;;5115357;28;20091;-66
2023/10/18 12:14:49;;;;;;;2.13;1.92;;;11.50;99.90;;;;;;5115241;28;20047;-65
2023/10/18 12:17:16;;;;;;;1.73;1.63;;;11.50;99.90;;;;;;5096749;28;20054;-65
2023/10/18 12:19:45;;;;;;;2.00;1.73;;;11.60;1.00;;;;;;5115240;28;20040;-65
2023/10/18 12:22:15;;;;;;;2.10;1.90;;;11.70;99.90;;;;;;5114968;28;20399;-65
2023/10/18 12:24:41;;;;;;;2.28;2.08;;;11.70;99.90;;;;;;5115254;28;20399;-65
2023/10/18 12:27:53;;;;;;;2.10;1.90;;;12.10;99.90;;;;;;5114986;28;20043;-64
2023/10/18 12:29:54;;;;;;;2.05;1.90;;;12.50;57.50;;;;;;5096884;28;20454;-65
2023/10/18 12:32:26;;;;;;;2.20;2.00;;;11.70;99.90;;;;;;5096482;28;20048;-65
2023/10/18 12:34:58;;;;;;;1.80;1.70;;;12.40;99.90;;;;;;5114950;28;20047;-65
2023/10/18 12:37:45;;;;;;;1.92;1.67;;;11.50;1.00;;;;;;5114704;28;20047;-64
2023/10/18 12:43:04;;;;;;;1.73;1.63;;;11.60;99.90;;;;;;5085183;28;20067;-65
2023/10/18 12:45:42;;;;;;;1.88;1.75;;;11.60;99.90;;;;;;5096498;28;20075;-65
2023/10/18 12:48:13;;;;;;;2.15;1.77;;;12.10;99.90;;;;;;5114643;28;20395;-65
2023/10/18 12:50:45;;;;;;;1.98;1.75;;;11.60;99.90;;;;;;5114609;28;20076;-65
2023/10/18 12:55:58;;;;;;;2.25;2.05;;;11.80;99.90;;;;;;5114501;28;20177;-65
2023/10/18 12:58:31;;;;;;;1.73;1.63;;;11.80;99.90;;;;;;5114498;28;20096;-65
2023/10/18 13:01:06;;;;;;;2.35;2.15;;;11.70;99.90;;;;;;5114475;28;20043;-66
2023/10/18 13:03:34;;;;;;;1.70;1.50;;;12.20;99.90;;;;;;5114457;28;20028;-66
2023/10/18 13:06:00;;;;;;;2.05;1.95;;;12.10;99.90;;;;;;5095762;28;20534;-65
2023/10/18 13:08:26;;;;;;;2.20;1.98;;;11.70;1.00;;;;;;5114305;28;20431;-65
2023/10/18 13:13:44;;;;;;;2.47;1.90;;;11.90;99.90;;;;;;5066559;28;20087;-65
2023/10/18 13:16:14;;;;;;;1.77;1.67;;;11.70;99.90;;;;;;5113898;28;20094;-65
2023/10/18 13:18:41;;;;;;;2.17;1.90;;;11.70;99.90;;;;;;5112541;28;20038;-65
2023/10/18 13:21:09;;;;;;;1.85;1.75;;;11.80;99.90;;;;;;5113735;28;20071;-65
2023/10/18 13:23:35;;;;;;;2.38;2.17;;;12.40;64.20;;;;;;5113770;28;20040;-65
2023/10/18 13:26:00;;;;;;;2.42;2.25;;;11.90;99.90;;;;;;5113984;28;20504;-65
2023/10/18 13:28:43;;;;;;;2.38;1.92;;;11.80;1.00;;;;;;5114096;28;20035;-66
2023/10/18 13:31:09;;;;;;;2.53;1.70;;;11.60;1.00;;;;;;5113974;28;20118;-66
2023/10/18 13:33:35;;;;;;;1.92;1.83;;;12.00;99.90;;;;;;5113848;28;20044;-66
2023/10/18 13:36:02;;;;;;;2.70;1.75;;;12.60;99.90;;;;;;5095277;28;20036;-66
2023/10/18 13:38:29;;;;;;;2.88;2.08;;;11.70;99.90;;;;;;5113752;28;20445;-66
2023/10/18 13:40:54;;;;;;;1.60;1.50;;;12.10;1.00;;;;;;5113788;28;20039;-66
2023/10/18 13:43:24;;;;;;;1.55;1.40;;;11.70;1.00;;;;;;5113747;28;20036;-66
2023/10/18 13:45:59;;;;;;;1.73;1.63;;;11.50;99.90;;;;;;5095257;28;20050;-66
2023/10/18 13:48:25;;;;;;;1.60;1.50;;;11.60;99.90;;;;;;5113414;28;20035;-66
2023/10/18 13:50:53;;;;;;;1.65;1.55;;;11.70;99.90;;;;;;5113634;28;20036;-66
2023/10/18 13:53:21;;;;;;;1.95;1.85;;;11.80;99.90;;;;;;5113586;28;20070;-66
2023/10/18 13:55:47;;;;;;;2.05;1.85;;;11.70;99.90;;;;;;5113195;28;20056;-66
2023/10/18 13:58:13;;;;;;;2.08;1.88;;;11.60;99.90;;;;;;5113536;28;20091;-66
2023/10/18 14:00:43;;;;;;;1.95;1.75;;;12.40;99.90;;;;;;5095472;28;20382;-66